Terminal Aerodrome Forecast
Issued by NWS

Home | Current Version | Previous Version | Text Only | Print | Product List | Glossary Off
Versions: 1 2 3 4 5 6 7 8 9 10 11 12 13 14 15 16 17 18 19 20 21 22 23 24 25

000
FTUS43 KABR 030540 CCA
TAFPIR
TAF COR
KPIR 030540Z 0306/0406 VRB05KT 2SM BR SKC
      TEMPO 0306/0310 1/4SM FZFG VV001
     FM031300 17007KT 6SM BR SCT080
     FM031700 18010KT P6SM SCT080
     FM040300 24008KT P6SM BKN030=

USA.gov is the U.S. government's official web portal to all federal, state and local government web resources and services.